createdAt,value
2023-02-08T00:00:57.149Z,-5.05
2023-02-08T00:03:24.748Z,-5.00
2023-02-08T00:05:51.402Z,-5.09
2023-02-08T00:08:18.303Z,-5.28
2023-02-08T00:10:45.319Z,-5.23
2023-02-08T00:13:11.946Z,-4.95
2023-02-08T00:15:43.373Z,-4.95
2023-02-08T00:18:10.247Z,-4.98
2023-02-08T00:20:41.808Z,-5.14
2023-02-08T00:23:08.843Z,-5.07
2023-02-08T00:25:36.173Z,-5.25
2023-02-08T00:28:04.718Z,-5.33
2023-02-08T00:30:31.952Z,-5.17
2023-02-08T00:32:58.813Z,-5.19
2023-02-08T00:35:25.630Z,-5.21
2023-02-08T00:37:52.610Z,-5.17
2023-02-08T00:40:19.313Z,-5.14
2023-02-08T00:42:46.167Z,-5.28
2023-02-08T00:45:12.986Z,-5.17
2023-02-08T00:47:39.658Z,-5.21
2023-02-08T00:50:07.111Z,-5.27
2023-02-08T00:52:36.374Z,-5.36
2023-02-08T00:55:04.977Z,-5.24
2023-02-08T00:57:34.967Z,-5.42
2023-02-08T01:00:02.296Z,-5.25
2023-02-08T01:02:29.379Z,-5.48
2023-02-08T01:04:56.057Z,-5.24
2023-02-08T01:07:23.182Z,-5.25
2023-02-08T01:09:49.784Z,-5.29
2023-02-08T01:12:16.503Z,-5.32
2023-02-08T01:14:43.214Z,-5.47
2023-02-08T01:17:10.060Z,-5.38
2023-02-08T01:19:36.686Z,-5.41
2023-02-08T01:22:03.436Z,-5.44
2023-02-08T01:24:30.050Z,-5.46
2023-02-08T01:26:57.043Z,-5.57
2023-02-08T01:29:23.694Z,-5.43
2023-02-08T01:31:50.491Z,-5.45
2023-02-08T01:34:17.160Z,-5.42
2023-02-08T01:36:43.987Z,-5.41
2023-02-08T01:39:11.289Z,-5.47
2023-02-08T01:41:41.925Z,-5.42
2023-02-08T01:44:11.345Z,-5.41
2023-02-08T01:46:39.216Z,-5.41
2023-02-08T01:49:31.949Z,-5.44
2023-02-08T01:52:16.124Z,-5.56
2023-02-08T01:54:51.607Z,-6.09
2023-02-08T01:57:20.878Z,-5.91
2023-02-08T01:59:50.045Z,-6.26
2023-02-08T02:02:20.903Z,-6.48
2023-02-08T02:04:50.179Z,-7.06
2023-02-08T02:07:18.798Z,-7.23
2023-02-08T02:10:04.106Z,-7.33
2023-02-08T02:12:33.014Z,-7.91
2023-02-08T02:15:00.908Z,-7.40
2023-02-08T02:17:27.722Z,-7.24
2023-02-08T02:20:13.097Z,-6.99
2023-02-08T02:22:39.923Z,-6.74
2023-02-08T02:25:09.480Z,-6.81
2023-02-08T02:28:00.765Z,-7.90
2023-02-08T02:30:33.292Z,-6.58
2023-02-08T02:33:10.285Z,-6.49
2023-02-08T02:35:39.855Z,-6.32
2023-02-08T02:38:41.644Z,-6.41
2023-02-08T02:41:17.866Z,-6.78
2023-02-08T02:43:55.179Z,-7.10
2023-02-08T02:46:48.094Z,-7.19
2023-02-08T02:49:17.916Z,-7.20
2023-02-08T02:52:12.268Z,-7.29
2023-02-08T02:54:44.997Z,-7.44
2023-02-08T02:57:17.448Z,-7.50
2023-02-08T02:59:45.110Z,-7.36
2023-02-08T03:02:12.834Z,-7.30
2023-02-08T03:04:39.480Z,-6.82
2023-02-08T03:07:20.701Z,-6.59
2023-02-08T03:10:24.861Z,-6.39
2023-02-08T03:12:54.612Z,-6.23
2023-02-08T03:15:35.324Z,-6.27
2023-02-08T03:18:11.012Z,-6.25
2023-02-08T03:21:03.086Z,-6.16
2023-02-08T03:24:01.967Z,-6.73
2023-02-08T03:26:34.492Z,-6.37
2023-02-08T03:29:36.433Z,-6.37
2023-02-08T03:32:16.952Z,-6.62
2023-02-08T03:34:54.278Z,-6.19
2023-02-08T03:37:28.795Z,-6.13
2023-02-08T03:40:16.791Z,-6.09
2023-02-08T03:42:46.322Z,-6.11
2023-02-08T03:45:19.886Z,-6.24
2023-02-08T03:47:50.827Z,-6.32
2023-02-08T03:50:20.567Z,-6.35
2023-02-08T03:52:49.129Z,-6.28
2023-02-08T03:55:20.258Z,-6.40
2023-02-08T03:58:08.550Z,-6.29
2023-02-08T04:00:40.665Z,-6.25
2023-02-08T04:03:19.752Z,-6.17
2023-02-08T04:05:46.479Z,-6.28
2023-02-08T04:08:13.140Z,-6.19
2023-02-08T04:10:40.216Z,-6.13
2023-02-08T04:13:06.948Z,-6.11
2023-02-08T04:15:33.709Z,-6.13
2023-02-08T04:18:00.736Z,-6.15
2023-02-08T04:20:27.586Z,-6.16
2023-02-08T04:22:54.290Z,-6.15
2023-02-08T04:25:21.090Z,-6.18
2023-02-08T04:27:47.766Z,-6.23
2023-02-08T04:30:14.779Z,-6.36
2023-02-08T04:32:41.417Z,-6.35
2023-02-08T04:35:08.280Z,-6.48
2023-02-08T04:37:35.299Z,-6.50
2023-02-08T04:40:02.232Z,-6.82
2023-02-08T04:42:28.841Z,-6.53
2023-02-08T04:44:55.617Z,-7.20
2023-02-08T04:47:22.392Z,-7.59
2023-02-08T04:49:49.119Z,-7.90
2023-02-08T04:52:15.722Z,-8.15
2023-02-08T04:54:42.501Z,-8.34
2023-02-08T04:57:13.240Z,-8.38
2023-02-08T04:59:40.047Z,-8.46
2023-02-08T05:02:06.770Z,-8.53
2023-02-08T05:04:33.578Z,-8.74
2023-02-08T05:07:00.334Z,-8.70
2023-02-08T05:09:27.053Z,-8.65
2023-02-08T05:11:53.682Z,-8.68
2023-02-08T05:14:20.368Z,-8.61
2023-02-08T05:16:47.013Z,-8.53
2023-02-08T05:19:14.460Z,-8.45
2023-02-08T05:21:41.074Z,-8.40
2023-02-08T05:24:07.997Z,-8.33
2023-02-08T05:26:34.584Z,-8.36
2023-02-08T05:29:01.272Z,-8.41
2023-02-08T05:31:28.320Z,-8.37
2023-02-08T05:33:55.069Z,-8.38
2023-02-08T05:36:23.076Z,-8.28
2023-02-08T05:38:50.377Z,-8.41
2023-02-08T05:41:17.456Z,-8.14
2023-02-08T05:43:44.244Z,-7.95
2023-02-08T05:46:11.055Z,-8.13
2023-02-08T05:48:37.978Z,-7.93
2023-02-08T05:51:04.653Z,-7.87
2023-02-08T05:53:31.686Z,-7.79
2023-02-08T05:55:59.198Z,-7.67
2023-02-08T05:58:26.543Z,-7.73
2023-02-08T06:00:53.304Z,-7.78
2023-02-08T06:03:20.169Z,-7.90
2023-02-08T06:05:46.839Z,-7.93
2023-02-08T06:08:13.726Z,-8.11
2023-02-08T06:10:40.589Z,-7.95
2023-02-08T06:13:07.523Z,-7.70
2023-02-08T06:15:34.170Z,-7.45
2023-02-08T06:18:00.930Z,-7.25
2023-02-08T06:20:27.617Z,-7.11
2023-02-08T06:22:55.077Z,-6.99
2023-02-08T06:25:21.677Z,-7.02
2023-02-08T06:27:48.829Z,-7.48
2023-02-08T06:30:15.883Z,-7.84
2023-02-08T06:32:42.676Z,-8.07
2023-02-08T06:35:09.932Z,-7.53
2023-02-08T06:37:36.879Z,-8.70
2023-02-08T06:40:05.001Z,-8.35
2023-02-08T06:42:31.720Z,-8.46
2023-02-08T06:44:58.410Z,-7.23
2023-02-08T06:47:26.289Z,-7.15
2023-02-08T06:49:53.086Z,-7.63
2023-02-08T06:52:21.027Z,-7.60
2023-02-08T06:54:48.105Z,-7.38
2023-02-08T06:57:14.868Z,-7.43
2023-02-08T06:59:42.242Z,-6.78
2023-02-08T07:02:18.442Z,-7.06
2023-02-08T07:04:45.790Z,-6.91
2023-02-08T07:07:13.592Z,-7.35
2023-02-08T07:09:40.276Z,-7.01
2023-02-08T07:12:08.377Z,-7.43
2023-02-08T07:14:42.479Z,-6.98
2023-02-08T07:17:09.772Z,-8.08
2023-02-08T07:19:36.552Z,-7.07
2023-02-08T07:22:03.482Z,-6.63
2023-02-08T07:24:31.035Z,-6.95
2023-02-08T07:26:57.712Z,-7.03
2023-02-08T07:29:24.297Z,-8.38
2023-02-08T07:31:51.192Z,-6.93
2023-02-08T07:34:17.823Z,-7.37
2023-02-08T07:36:44.526Z,-7.20
2023-02-08T07:39:11.492Z,-7.26
2023-02-08T07:41:38.140Z,-8.80
2023-02-08T07:44:04.823Z,-7.33
2023-02-08T07:46:31.531Z,-7.03
2023-02-08T07:48:58.181Z,-7.00
2023-02-08T07:51:24.935Z,-6.94
2023-02-08T07:53:52.023Z,-6.77
2023-02-08T07:56:18.869Z,-7.05
2023-02-08T07:58:45.443Z,-7.55
2023-02-08T08:01:21.829Z,-6.57
2023-02-08T08:03:50.504Z,-6.28
2023-02-08T08:06:19.029Z,-6.63
2023-02-08T08:08:45.678Z,-7.11
2023-02-08T08:11:12.245Z,-6.44
2023-02-08T08:13:39.289Z,-6.99
2023-02-08T08:16:06.238Z,-6.30
2023-02-08T08:18:32.894Z,-6.43
2023-02-08T08:20:59.654Z,-6.64
2023-02-08T08:23:26.390Z,-6.41
2023-02-08T08:26:08.441Z,-6.51
2023-02-08T08:28:35.675Z,-6.45
2023-02-08T08:31:02.614Z,-6.98
2023-02-08T08:33:29.332Z,-6.42
2023-02-08T08:35:56.040Z,-6.31
2023-02-08T08:38:22.728Z,-6.46
2023-02-08T08:40:49.339Z,-6.63
2023-02-08T08:43:16.377Z,-8.44
2023-02-08T08:45:42.957Z,-6.17
2023-02-08T08:48:09.664Z,-6.29
2023-02-08T08:50:36.364Z,-6.15
2023-02-08T08:53:03.325Z,-6.44
2023-02-08T08:55:29.950Z,-7.71
2023-02-08T08:57:56.652Z,-6.61
2023-02-08T09:00:23.377Z,-6.09
2023-02-08T09:02:50.137Z,-7.11
2023-02-08T09:05:17.397Z,-5.61
2023-02-08T09:07:44.084Z,-6.75
2023-02-08T09:10:10.676Z,-5.88
2023-02-08T09:12:37.525Z,-6.65
2023-02-08T09:15:04.338Z,-5.56
2023-02-08T09:17:30.976Z,-5.59
2023-02-08T09:19:57.733Z,-5.42
2023-02-08T09:22:24.366Z,-5.13
2023-02-08T09:24:52.916Z,-4.70
2023-02-08T09:27:20.028Z,-4.80
2023-02-08T09:29:46.634Z,-5.04
2023-02-08T09:32:13.648Z,-5.03
2023-02-08T09:34:40.404Z,-4.56
2023-02-08T09:37:07.118Z,-4.74
2023-02-08T09:39:34.060Z,-4.69
2023-02-08T09:42:32.827Z,-4.08
2023-02-08T09:45:20.237Z,-4.27
2023-02-08T09:47:58.249Z,-4.49
2023-02-08T09:50:45.469Z,-4.03
2023-02-08T09:53:21.569Z,-4.56
2023-02-08T09:55:53.516Z,-4.65
2023-02-08T09:58:26.474Z,-3.83
2023-02-08T10:00:54.801Z,-3.69
2023-02-08T10:03:31.253Z,-3.49
2023-02-08T10:05:58.337Z,-3.59
2023-02-08T10:08:34.909Z,-3.61
2023-02-08T10:11:20.860Z,-3.44
2023-02-08T10:14:16.230Z,-3.21
2023-02-08T10:17:15.422Z,-3.17
2023-02-08T10:19:45.060Z,-3.10
2023-02-08T10:22:35.346Z,-3.21
2023-02-08T10:25:36.103Z,-3.37
2023-02-08T10:28:28.756Z,-3.26
2023-02-08T10:31:15.815Z,-3.34
2023-02-08T10:33:47.482Z,-3.34
2023-02-08T10:36:25.832Z,-3.32
2023-02-08T10:38:55.435Z,-3.46
2023-02-08T10:41:28.332Z,-4.25
2023-02-08T10:44:21.517Z,-3.67
2023-02-08T10:46:52.228Z,-4.23
2023-02-08T10:49:31.156Z,-4.16
2023-02-08T10:51:57.844Z,-4.82
2023-02-08T10:54:24.530Z,-4.22
2023-02-08T10:56:55.911Z,-3.90
2023-02-08T10:59:27.437Z,-4.33
2023-02-08T11:01:56.369Z,-3.94
2023-02-08T11:04:23.166Z,-4.26
2023-02-08T11:06:51.044Z,-4.43
2023-02-08T11:09:20.754Z,-3.86
2023-02-08T11:11:48.719Z,-3.74
2023-02-08T11:14:18.312Z,-3.87
2023-02-08T11:16:56.754Z,-3.66
2023-02-08T11:19:29.761Z,-3.79
2023-02-08T11:21:56.800Z,-3.76
2023-02-08T11:24:39.777Z,-4.52
2023-02-08T11:27:36.622Z,-3.34
2023-02-08T11:30:09.446Z,-3.26
2023-02-08T11:32:36.186Z,-3.56
2023-02-08T11:35:18.285Z,-3.12
2023-02-08T11:37:50.916Z,-2.94
2023-02-08T11:40:34.581Z,-2.86
2023-02-08T11:43:02.102Z,-3.27
2023-02-08T11:45:35.106Z,-2.99
2023-02-08T11:48:03.528Z,-2.39
2023-02-08T11:50:36.765Z,-2.16
2023-02-08T11:53:17.536Z,-2.59
2023-02-08T11:55:44.676Z,-2.09
2023-02-08T11:58:14.574Z,-2.03
2023-02-08T12:00:41.436Z,-2.66
2023-02-08T12:03:16.948Z,-2.34
2023-02-08T12:06:09.406Z,-1.82
2023-02-08T12:08:40.859Z,-1.86
2023-02-08T12:11:43.372Z,-1.61
2023-02-08T12:14:31.486Z,-1.58
2023-02-08T12:17:26.244Z,-1.58
2023-02-08T12:20:13.000Z,-2.09
2023-02-08T12:22:47.342Z,-1.74
2023-02-08T12:25:40.315Z,-1.42
2023-02-08T12:28:25.256Z,-1.63
2023-02-08T12:31:03.340Z,-2.68
2023-02-08T12:33:36.097Z,-1.42
2023-02-08T12:36:04.998Z,-1.53
2023-02-08T12:38:50.256Z,-1.43
2023-02-08T12:41:23.206Z,-1.50
2023-02-08T12:44:12.898Z,-1.58
2023-02-08T12:47:09.376Z,-1.55
2023-02-08T12:49:55.880Z,-1.38
2023-02-08T12:52:36.118Z,-1.15
2023-02-08T12:55:28.976Z,-0.77
2023-02-08T12:58:24.938Z,-1.20
2023-02-08T13:00:53.912Z,-0.72
2023-02-08T13:03:41.763Z,-0.86
2023-02-08T13:06:15.924Z,-1.21
2023-02-08T13:08:52.613Z,-0.83
2023-02-08T13:11:34.654Z,-0.85
2023-02-08T13:14:18.297Z,-1.15
2023-02-08T13:16:52.314Z,-1.09
2023-02-08T13:19:32.900Z,-1.23
2023-02-08T13:22:00.992Z,-0.88
2023-02-08T13:24:34.189Z,-0.21
2023-02-08T13:27:01.036Z,-0.87
2023-02-08T13:29:29.411Z,-0.62
2023-02-08T13:32:06.581Z,-0.44
2023-02-08T13:34:56.868Z,-0.33
2023-02-08T13:37:30.192Z,-0.09
2023-02-08T13:40:16.875Z,-0.11
2023-02-08T13:42:49.568Z,0.02
2023-02-08T13:45:30.671Z,-0.06
2023-02-08T13:48:00.711Z,-0.69
2023-02-08T13:50:29.152Z,-0.06
2023-02-08T13:52:56.296Z,-0.68
2023-02-08T13:55:29.052Z,-0.06
2023-02-08T13:58:01.996Z,-0.84
2023-02-08T14:00:29.688Z,-0.16
2023-02-08T14:03:14.910Z,0.29
2023-02-08T14:06:20.894Z,0.01
2023-02-08T14:09:14.862Z,-0.22
2023-02-08T14:11:44.541Z,-1.04
2023-02-08T14:14:32.262Z,-0.58
2023-02-08T14:17:05.072Z,-0.49
2023-02-08T14:19:43.695Z,-1.07
2023-02-08T14:22:13.403Z,-0.74
2023-02-08T14:24:49.360Z,-0.67
2023-02-08T14:27:27.050Z,-0.81
2023-02-08T14:30:18.003Z,-0.80
2023-02-08T14:32:48.654Z,-1.19
2023-02-08T14:35:15.196Z,-1.06
2023-02-08T14:37:43.641Z,-0.65
2023-02-08T14:40:19.449Z,-0.52
2023-02-08T14:43:01.615Z,-0.55
2023-02-08T14:45:37.482Z,-0.83
2023-02-08T14:48:32.575Z,-0.86
2023-02-08T14:51:08.395Z,-0.96
2023-02-08T14:53:47.244Z,-0.83
2023-02-08T14:56:44.266Z,-0.55
2023-02-08T14:59:16.814Z,-0.21
2023-02-08T15:01:47.908Z,-0.25
2023-02-08T15:04:15.737Z,-0.22
2023-02-08T15:10:19.120Z,0.14
2023-02-08T15:12:50.503Z,-0.24
2023-02-08T15:15:32.555Z,-0.47
2023-02-08T15:18:02.066Z,-0.20
2023-02-08T15:20:32.130Z,-0.46
2023-02-08T15:23:03.371Z,-0.40
2023-02-08T15:25:36.078Z,-0.46
2023-02-08T15:28:24.692Z,-0.53
2023-02-08T15:31:09.785Z,-1.09
2023-02-08T15:33:40.805Z,-1.16
2023-02-08T15:36:17.666Z,-1.54
2023-02-08T15:38:45.029Z,-0.86
2023-02-08T15:41:24.090Z,-1.66
2023-02-08T15:43:50.867Z,-1.83
2023-02-08T15:46:25.522Z,-1.32
2023-02-08T15:48:53.649Z,-1.61
2023-02-08T15:51:21.378Z,-2.04
2023-02-08T15:54:17.998Z,-1.83
2023-02-08T15:57:19.672Z,-1.63
2023-02-08T15:59:47.979Z,-1.54
2023-02-08T16:02:28.407Z,-1.10
2023-02-08T16:04:56.373Z,-1.29
2023-02-08T16:07:34.754Z,-1.14
2023-02-08T16:10:01.899Z,-1.67
2023-02-08T16:12:28.957Z,-2.09
2023-02-08T16:14:56.041Z,-2.26
2023-02-08T16:17:28.868Z,-1.77
2023-02-08T16:19:55.731Z,-2.76
2023-02-08T16:22:22.258Z,-1.64
2023-02-08T16:24:49.029Z,-2.36
2023-02-08T16:27:22.961Z,-2.07
2023-02-08T16:29:50.047Z,-3.03
2023-02-08T16:32:32.988Z,-2.30
2023-02-08T16:35:00.286Z,-2.86
2023-02-08T16:37:30.370Z,-2.95
2023-02-08T16:40:07.947Z,-3.07
2023-02-08T16:42:36.898Z,-2.85
2023-02-08T16:45:09.501Z,-2.68
2023-02-08T16:47:37.441Z,-2.38
2023-02-08T16:50:05.805Z,-2.18
2023-02-08T16:52:33.595Z,-2.30
2023-02-08T16:55:00.461Z,-2.40
2023-02-08T16:57:48.649Z,-3.13
2023-02-08T17:00:30.680Z,-2.90
2023-02-08T17:02:57.959Z,-3.24
2023-02-08T17:05:28.450Z,-3.62
2023-02-08T17:07:55.290Z,-3.22
2023-02-08T17:10:32.527Z,-2.98
2023-02-08T17:13:18.636Z,-3.17
2023-02-08T17:15:48.703Z,-2.76
2023-02-08T17:18:16.668Z,-2.91
2023-02-08T17:20:46.294Z,-3.00
2023-02-08T17:23:18.241Z,-2.80
2023-02-08T17:29:21.141Z,-2.92
2023-02-08T17:32:20.993Z,-3.08
2023-02-08T17:35:22.272Z,-3.47
2023-02-08T17:38:07.674Z,-3.97
2023-02-08T17:40:57.850Z,-3.64
2023-02-08T17:43:56.099Z,-3.66
2023-02-08T17:46:38.953Z,-3.67
2023-02-08T17:49:46.169Z,-3.53
2023-02-08T17:52:58.689Z,-3.25
2023-02-08T17:55:44.226Z,-3.33
2023-02-08T18:01:57.206Z,-3.64
2023-02-08T18:05:07.720Z,-3.86
2023-02-08T18:11:22.146Z,-3.17
2023-02-08T18:14:04.851Z,-3.26
2023-02-08T18:16:31.661Z,-4.46
2023-02-08T18:18:59.226Z,-3.41
2023-02-08T18:21:32.134Z,-5.06
2023-02-08T18:24:04.858Z,-3.75
2023-02-08T18:26:33.901Z,-3.89
2023-02-08T18:29:03.816Z,-4.41
2023-02-08T18:31:35.138Z,-4.95
2023-02-08T18:34:02.072Z,-5.19
2023-02-08T18:36:34.919Z,-4.17
2023-02-08T18:39:21.712Z,-6.25
2023-02-08T18:42:19.246Z,-7.31
2023-02-08T18:44:58.079Z,-7.57
2023-02-08T18:47:24.847Z,-4.34
2023-02-08T18:49:57.320Z,-4.28
2023-02-08T18:52:45.657Z,-6.55
2023-02-08T18:55:15.761Z,-7.04
2023-02-08T18:57:42.640Z,-7.49
2023-02-08T19:00:13.688Z,-6.34
2023-02-08T19:02:40.628Z,-6.95
2023-02-08T19:05:18.128Z,-5.88
2023-02-08T19:07:45.026Z,-6.72
2023-02-08T19:10:12.620Z,-4.71
2023-02-08T19:12:39.458Z,-4.56
2023-02-08T19:15:06.550Z,-4.89
2023-02-08T19:17:33.279Z,-4.66
2023-02-08T19:20:35.421Z,-4.79
2023-02-08T19:23:03.404Z,-5.10
2023-02-08T19:25:30.430Z,-5.21
2023-02-08T19:27:57.697Z,-4.89
2023-02-08T19:30:25.635Z,-5.16
2023-02-08T19:32:55.102Z,-5.89
2023-02-08T19:35:22.176Z,-6.99
2023-02-08T19:37:50.368Z,-5.92
2023-02-08T19:40:18.784Z,-6.46
2023-02-08T19:42:46.262Z,-5.81
2023-02-08T19:45:13.840Z,-6.70
2023-02-08T19:47:51.449Z,-5.77
2023-02-08T19:50:18.732Z,-5.11
2023-02-08T19:52:45.334Z,-6.81
2023-02-08T19:55:21.796Z,-5.12
2023-02-08T19:57:50.145Z,-5.45
2023-02-08T20:00:23.433Z,-4.49
2023-02-08T20:02:51.615Z,-4.52
2023-02-08T20:05:20.172Z,-4.58
2023-02-08T20:07:50.099Z,-5.54
2023-02-08T20:10:21.301Z,-4.43
2023-02-08T20:12:49.325Z,-5.96
2023-02-08T20:22:57.143Z,-6.52
2023-02-08T20:25:37.085Z,-6.37
2023-02-08T20:31:43.218Z,-4.20
2023-02-08T20:34:15.247Z,-4.97
2023-02-08T20:36:49.677Z,-4.58
2023-02-08T20:39:21.703Z,-5.60
2023-02-08T20:41:51.534Z,-5.42
2023-02-08T20:44:20.748Z,-4.79
2023-02-08T20:46:47.516Z,-4.59
2023-02-08T20:49:14.455Z,-4.32
2023-02-08T20:51:44.339Z,-6.28
2023-02-08T20:54:13.667Z,-5.65
2023-02-08T20:56:40.503Z,-4.41
2023-02-08T20:59:11.125Z,-4.78
2023-02-08T21:01:38.060Z,-5.94
2023-02-08T21:07:16.564Z,-6.89
2023-02-08T21:12:48.239Z,-7.27
2023-02-08T21:15:27.730Z,-6.13
2023-02-08T21:17:54.701Z,-6.07
2023-02-08T21:20:22.078Z,-4.77
2023-02-08T21:23:24.756Z,-7.49
2023-02-08T21:25:53.051Z,-6.32
2023-02-08T21:28:21.633Z,-7.02
2023-02-08T21:31:04.472Z,-6.16
2023-02-08T21:33:31.458Z,-5.73
2023-02-08T21:36:02.782Z,-5.14
2023-02-08T21:38:29.895Z,-5.16
2023-02-08T21:40:56.670Z,-5.62
2023-02-08T21:43:23.620Z,-6.08
2023-02-08T21:45:50.459Z,-5.53
2023-02-08T21:48:17.269Z,-6.20
2023-02-08T21:50:44.305Z,-6.16
2023-02-08T21:53:15.771Z,-5.51
2023-02-08T21:55:46.670Z,-5.56
2023-02-08T21:58:13.674Z,-5.32
2023-02-08T22:00:40.639Z,-5.18
2023-02-08T22:03:07.415Z,-5.67
2023-02-08T22:05:34.212Z,-5.41
2023-02-08T22:08:01.467Z,-5.52
2023-02-08T22:10:30.850Z,-5.38
2023-02-08T22:12:58.499Z,-5.30
2023-02-08T22:15:28.194Z,-5.54
2023-02-08T22:17:57.732Z,-5.21
2023-02-08T22:20:25.594Z,-5.17
2023-02-08T22:22:55.322Z,-6.03
2023-02-08T22:25:22.690Z,-5.13
2023-02-08T22:27:50.704Z,-5.23
2023-02-08T22:30:18.672Z,-6.00
2023-02-08T22:32:48.540Z,-5.81
2023-02-08T22:35:17.072Z,-5.58
2023-02-08T22:37:44.267Z,-6.12
2023-02-08T22:40:11.660Z,-6.04
2023-02-08T22:42:39.887Z,-6.12
2023-02-08T22:45:06.914Z,-6.04
2023-02-08T22:47:34.623Z,-6.01
2023-02-08T22:50:01.458Z,-6.28
2023-02-08T22:52:28.262Z,-6.37
2023-02-08T22:54:54.891Z,-6.30
2023-02-08T22:57:22.044Z,-5.47
2023-02-08T22:59:48.899Z,-5.95
2023-02-08T23:02:15.561Z,-6.07
2023-02-08T23:04:42.283Z,-7.66
2023-02-08T23:07:09.190Z,-7.13
2023-02-08T23:09:35.879Z,-5.53
2023-02-08T23:12:02.892Z,-5.59
2023-02-08T23:14:29.892Z,-6.46
2023-02-08T23:16:56.660Z,-7.19
2023-02-08T23:19:23.497Z,-6.48
2023-02-08T23:21:50.357Z,-6.23
2023-02-08T23:24:17.125Z,-6.81
2023-02-08T23:26:43.938Z,-5.82
2023-02-08T23:29:10.548Z,-6.78
2023-02-08T23:31:40.216Z,-5.80
2023-02-08T23:34:06.913Z,-5.81
2023-02-08T23:36:33.702Z,-6.33
2023-02-08T23:39:01.149Z,-6.00
2023-02-08T23:41:27.876Z,-5.88
2023-02-08T23:43:54.590Z,-7.21
2023-02-08T23:46:24.374Z,-6.50
2023-02-08T23:48:51.819Z,-6.03
2023-02-08T23:51:21.072Z,-7.45
2023-02-08T23:53:48.276Z,-6.54
2023-02-08T23:56:16.669Z,-6.46
2023-02-08T23:58:50.384Z,-7.49
